D/T METAR WX W/DIR W/SPE G/SPE TEMP DEWP
9/12/19 12:20 EGCC 091220Z AUTO 31011KT 9999 NCD 08/01 Q1015 NW (310°) 12.7mph 8°C 1°C
9/12/19 11:50 EGCC 091150Z AUTO 31012KT 9999 NCD 08/02 Q1014 NOSIG NW (310°) 13.8mph 8°C 2°C
9/12/19 11:20 EGCC 091120Z AUTO 31013KT 9999 NCD 07/02 Q1013 NOSIG NW (310°) 15.0mph 7°C 2°C
9/12/19 10:50 EGCC 091050Z AUTO 32012KT 9999 NCD 07/01 Q1012 NOSIG NW (320°) 13.8mph 7°C 1°C
9/12/19 10:20 EGCC 091020Z AUTO 32014KT 9999 NCD 07/02 Q1011 NOSIG NW (320°) 16.1mph 7°C 2°C
9/12/19 09:50 EGCC 090950Z 30013KT 9999 FEW031 07/02 Q1010 WNW (300°) 15.0mph 7°C 2°C
9/12/19 09:20 EGCC 090920Z 31013KT 9999 FEW031 07/02 Q1009 NW (310°) 15.0mph 7°C 2°C
9/12/19 08:50 EGCC 090850Z 31010KT 260V340 9999 FEW030 07/02 Q1008 NOSIG NW (310°) 11.5mph 7°C 2°C
9/12/19 08:20 EGCC 090820Z 31012KT 9999 FEW025 07/02 Q1007 NOSIG NW (310°) 13.8mph 7°C 2°C
9/12/19 07:50 EGCC 090750Z 31012KT 9999 FEW025 07/02 Q1005 NW (310°) 13.8mph 7°C 2°C
9/12/19 07:20 EGCC 090720Z 31013KT 9999 FEW025 07/03 Q1004 NW (310°) 15.0mph 7°C 3°C
9/12/19 06:20 EGCC 090620Z 32015KT CAVOK 07/03 Q1001 NOSIG NW (320°) 17.3mph 7°C 3°C
9/12/19 05:50 EGCC 090550Z AUTO 31018G29KT 9999 FEW043 07/04 Q0999 NOSIG NW (310°) 20.7mph 33.4mph 7°C 4°C
9/12/19 05:20 EGCC 090520Z AUTO 30016KT 9999 NCD 07/04 Q0998 NOSIG WNW (300°) 18.4mph 7°C 4°C
9/12/19 04:50 EGCC 090450Z AUTO 30017KT 9999 NCD 07/04 Q0996 NOSIG WNW (300°) 19.6mph 7°C 4°C
9/12/19 04:20 EGCC 090420Z AUTO 31015KT 9999 BKN020 BKN025 07/04 Q0995 NOSIG NW (310°) 17.3mph 7°C 4°C
9/12/19 03:50 EGCC 090350Z AUTO 31015KT 270V330 9999 BKN016 BKN021 OVC033 08/05 Q0993 NW (310°) 17.3mph 8°C 5°C
9/12/19 03:20 EGCC 090320Z AUTO 30011KT 9999 OVC009 07/06 Q0992 BECMG SCT009 WNW (300°) 12.7mph 7°C 6°C
9/12/19 02:50 EGCC 090250Z AUTO 26008KT 9999 BKN009 OVC013 06/05 Q0991 RERA REDZ BECMG FEW009 SCT013 W (260°) 9.2mph 6°C 5°C
9/12/19 02:20 EGCC 090220Z AUTO 26008KT 9999 BKN012 OVC019 06/05 Q0989 NOSIG W (260°) 9.2mph 6°C 5°C
9/12/19 01:50 EGCC 090150Z AUTO 24008KT 9999 BKN015 OVC026 06/04 Q0988 WSW (240°) 9.2mph 6°C 4°C
9/12/19 01:20 EGCC 090120Z AUTO 21007KT 170V240 9999 -RA BKN016/// OVC024/// //////TCU 06/04 Q0988 TEMPO SHRA -RA SSW (210°) 8.1mph 6°C 4°C
9/12/19 00:50 EGCC 090050Z AUTO 20006KT 9999 BKN022/// OVC033/// //////TCU 06/04 Q0987 SSW (200°) 6.9mph 6°C 4°C
9/12/19 00:20 EGCC 090020Z AUTO 23009KT 9999 BKN022/// BKN029/// //////TCU 07/04 Q0987 SW (230°) 10.4mph 7°C 4°C
8/12/19 23:50 EGCC 082350Z AUTO 22008KT 9999 BKN021/// OVC041/// //////TCU 06/04 Q0987 SW (220°) 9.2mph 6°C 4°C
8/12/19 23:20 EGCC 082320Z AUTO 20009KT 170V230 9999 -RA BKN021/// OVC037/// //////TCU 06/04 Q0986 TEMPO RA -RA SSW (200°) 10.4mph 6°C 4°C
8/12/19 22:50 EGCC 082250Z AUTO 21009KT 9999 -RA BKN022/// BKN026/// OVC033/// //////TCU 06/04 Q0987 TEMPO SHRA -RA SSW (210°) 10.4mph 6°C 4°C
8/12/19 22:20 EGCC 082220Z AUTO 20009KT 170V230 9999 -RA FEW026/// BKN035/// BKN047/// //////TCU 06/03 Q0987 TEMPO SHRA -RA SSW (200°) 10.4mph 6°C 3°C
8/12/19 21:20 EGCC 082120Z AUTO 21008KT 170V230 9999 BKN025/// BKN035/// //////TCU 06/04 Q0987 SSW (210°) 9.2mph 6°C 4°C
8/12/19 21:20 EGCC 082120Z AUTO 21008KT 170V230 9999 BKN025/// BKN035/// //////TCU 06/04 Q0987 TEMPO SHRA SSW (210°) 9.2mph 6°C 4°C
8/12/19 20:50 EGCC 082050Z AUTO 20009KT 9999 SCT032/// //////TCU 06/03 Q0987 TEMPO SHRA SSW (200°) 10.4mph 6°C 3°C
8/12/19 20:20 EGCC 082020Z AUTO 20008KT 9999 FEW046 06/03 Q0988 TEMPO SHRA SSW (200°) 9.2mph 6°C 3°C
8/12/19 19:50 EGCC 081950Z AUTO 20007KT 9999 FEW035 06/02 Q0988 NOSIG SSW (200°) 8.1mph 6°C 2°C
8/12/19 18:50 EGCC 081850Z AUTO 22012KT 9999 BKN048/// //////TCU 06/02 Q0989 SW (220°) 13.8mph 6°C 2°C
8/12/19 18:50 EGCC 081850Z AUTO 22012KT 9999 BKN048/// //////TCU 06/02 Q0989 NOSIG SW (220°) 13.8mph 6°C 2°C
8/12/19 18:20 EGCC 081820Z AUTO 22013KT 9999 NCD 06/02 Q0989 NOSIG SW (220°) 15.0mph 6°C 2°C
8/12/19 17:50 EGCC 081750Z AUTO 23013KT 180V240 9999 FEW036 BKN049 07/02 Q0990 SW (230°) 15.0mph 7°C 2°C
8/12/19 16:50 EGCC 081650Z AUTO 23014KT 9999 NCD 07/02 Q0991 TEMPO SHRA SW (230°) 16.1mph 7°C 2°C
8/12/19 16:20 EGCC 081620Z AUTO 23016KT 9999 NCD 06/02 Q0991 NOSIG SW (230°) 18.4mph 6°C 2°C
8/12/19 15:50 EGCC 081550Z AUTO 24016KT 9999 NCD 07/02 Q0991 WSW (240°) 18.4mph 7°C 2°C
8/12/19 15:20 EGCC 081520Z AUTO 24016KT 9999 FEW031/// SCT045/// //////CB 07/02 Q0992 NOSIG WSW (240°) 18.4mph 7°C 2°C
8/12/19 14:50 EGCC 081450Z AUTO 24019G35KT 9999 -RA SCT029 BKN034 BKN040 08/02 Q0992 TEMPO SHRA -RA WSW (240°) 21.9mph 40.3mph 8°C 2°C
8/12/19 13:50 EGCC 081350Z AUTO 24016G26KT 9999 SCT035 08/02 Q0992 NOSIG WSW (240°) 18.4mph 29.9mph 8°C 2°C
8/12/19 13:20 EGCC 081320Z AUTO 24021KT 9999 FEW034 09/02 Q0993 NOSIG WSW (240°) 24.2mph 9°C 2°C
8/12/19 12:50 EGCC 081250Z AUTO 24021G35KT 9999 FEW030 SCT040 08/03 Q0993 WSW (240°) 24.2mph 40.3mph 8°C 3°C
8/12/19 12:20 EGCC 081220Z AUTO 24024KT 9999 SCT032 08/03 Q0993 WSW (240°) 27.6mph 8°C 3°C
8/12/19 11:50 EGCC 081150Z 24021KT 9999 SCT031 08/03 Q0993 TEMPO SHRA WSW (240°) 24.2mph 8°C 3°C
8/12/19 11:20 EGCC 081120Z 23023KT 9999 VCSH FEW034 08/03 Q0993 TEMPO SHRA VCSH SW (230°) 26.5mph 8°C 3°C